VOE2176 LFBT-LPPT
Flight info
| Callsign | VOE2176 |
|---|---|
| Flight time | 1h 34m |
| Altitude | 37000 |
| Route | LMB G17 BIDAC DCT BTZ DCT URUNA DCT SSN DCT VRA DCT NEA DCT ARDID DCT INBOM |
| Aircraft | A319/M-SDFGIJ1RWY/LB1 |
Departure
| Time | 2026-05-07 13:21 |
|---|---|
| Airport | Tarbes-Lourdes-Pyrénées Airport (LFBT) |
Arrival
| Time | 2026-05-07 14:55 |
|---|---|
| Airport | Lisbon Humberto Delgado Airport (LPPT) |
| Time | Latitude | Longitude | Altitude | Speed | Heading |
|---|---|---|---|---|---|
| 2026-05-07 13:10 | 43.18483 | 0.00317 | 1213 ft | 0 kts | 37° |
| 2026-05-07 13:10 | 43.18472 | 0.00306 | 1213 ft | 4 kts | 32° |
| 2026-05-07 13:11 | 43.18449 | 0.00289 | 1214 ft | 4 kts | 18° |
| 2026-05-07 13:11 | 43.18423 | 0.00283 | 1218 ft | 4 kts | 346° |
| 2026-05-07 13:11 | 43.18407 | 0.00297 | 1218 ft | 2 kts | 282° |
| 2026-05-07 13:11 | 43.18407 | 0.00298 | 1218 ft | 0 kts | 282° |
| 2026-05-07 13:14 | 43.18408 | 0.00293 | 1218 ft | 2 kts | 280° |
| 2026-05-07 13:14 | 43.18412 | 0.00261 | 1218 ft | 5 kts | 280° |
| 2026-05-07 13:15 | 43.18422 | 0.00200 | 1218 ft | 8 kts | 289° |
| 2026-05-07 13:15 | 43.18460 | 0.00126 | 1218 ft | 12 kts | 310° |
| 2026-05-07 13:15 | 43.18489 | 0.00007 | 1192 ft | 15 kts | 285° |
| 2026-05-07 13:15 | 43.18517 | -0.00143 | 1198 ft | 18 kts | 284° |
| 2026-05-07 13:16 | 43.18516 | -0.00301 | 1199 ft | 17 kts | 218° |
| 2026-05-07 13:16 | 43.18416 | -0.00354 | 1203 ft | 14 kts | 200° |
| 2026-05-07 13:16 | 43.18325 | -0.00400 | 1207 ft | 14 kts | 201° |
| 2026-05-07 13:16 | 43.18237 | -0.00443 | 1211 ft | 13 kts | 198° |
| 2026-05-07 13:17 | 43.18147 | -0.00486 | 1214 ft | 14 kts | 200° |
| 2026-05-07 13:17 | 43.18049 | -0.00538 | 1216 ft | 16 kts | 201° |
| 2026-05-07 13:17 | 43.17941 | -0.00595 | 1218 ft | 18 kts | 200° |
| 2026-05-07 13:17 | 43.17817 | -0.00657 | 1219 ft | 20 kts | 201° |
| 2026-05-07 13:18 | 43.17684 | -0.00725 | 1223 ft | 21 kts | 200° |
| 2026-05-07 13:18 | 43.17545 | -0.00795 | 1227 ft | 22 kts | 200° |
| 2026-05-07 13:18 | 43.17405 | -0.00866 | 1233 ft | 21 kts | 200° |
| 2026-05-07 13:18 | 43.17268 | -0.00935 | 1240 ft | 21 kts | 201° |
| 2026-05-07 13:19 | 43.17138 | -0.01003 | 1252 ft | 20 kts | 201° |
| 2026-05-07 13:19 | 43.17008 | -0.01078 | 1251 ft | 21 kts | 208° |
| 2026-05-07 13:19 | 43.16876 | -0.01150 | 1255 ft | 20 kts | 200° |
| 2026-05-07 13:19 | 43.16796 | -0.01183 | 1256 ft | 4 kts | 122° |
| 2026-05-07 13:20 | 43.16827 | -0.01159 | 1258 ft | 7 kts | 18° |
| 2026-05-07 13:20 | 43.17013 | -0.01065 | 1254 ft | 64 kts | 20° |
| 2026-05-07 13:20 | 43.17664 | -0.00735 | 1224 ft | 133 kts | 20° |
| 2026-05-07 13:20 | 43.18657 | -0.00238 | 1532 ft | 154 kts | 21° |
| 2026-05-07 13:21 | 43.19669 | 0.00281 | 2165 ft | 156 kts | 23° |
| 2026-05-07 13:21 | 43.20685 | 0.00806 | 2768 ft | 156 kts | 24° |
| 2026-05-07 13:21 | 43.21740 | 0.01347 | 3266 ft | 171 kts | 23° |
| 2026-05-07 13:21 | 43.22927 | 0.01953 | 3601 ft | 194 kts | 22° |
| 2026-05-07 13:22 | 43.24287 | 0.02576 | 4008 ft | 215 kts | 12° |
| 2026-05-07 13:22 | 43.25823 | 0.02576 | 4702 ft | 233 kts | 353° |
| 2026-05-07 13:22 | 43.27517 | 0.02235 | 5138 ft | 258 kts | 352° |
| 2026-05-07 13:22 | 43.29344 | 0.01845 | 5869 ft | 271 kts | 351° |
| 2026-05-07 13:23 | 43.31224 | 0.01438 | 6770 ft | 275 kts | 350° |
| 2026-05-07 13:23 | 43.33134 | 0.01025 | 7643 ft | 281 kts | 350° |
| 2026-05-07 13:23 | 43.35084 | 0.00606 | 8502 ft | 287 kts | 349° |
| 2026-05-07 13:23 | 43.37072 | 0.00180 | 9378 ft | 292 kts | 350° |
| 2026-05-07 13:24 | 43.39105 | -0.00253 | 10196 ft | 301 kts | 350° |
| 2026-05-07 13:24 | 43.41246 | -0.00788 | 10514 ft | 324 kts | 342° |
| 2026-05-07 13:24 | 43.43268 | -0.02237 | 10991 ft | 334 kts | 318° |
| 2026-05-07 13:24 | 43.44768 | -0.04660 | 11760 ft | 334 kts | 296° |
| 2026-05-07 13:25 | 43.45511 | -0.07656 | 12579 ft | 333 kts | 275° |
| 2026-05-07 13:25 | 43.45407 | -0.10828 | 13402 ft | 332 kts | 257° |
| 2026-05-07 13:25 | 43.44967 | -0.13965 | 14149 ft | 336 kts | 256° |
| 2026-05-07 13:25 | 43.44506 | -0.17136 | 14865 ft | 339 kts | 257° |
| 2026-05-07 13:26 | 43.44038 | -0.20331 | 15577 ft | 342 kts | 257° |
| 2026-05-07 13:26 | 43.43569 | -0.23554 | 16294 ft | 345 kts | 257° |
| 2026-05-07 13:26 | 43.43099 | -0.26806 | 17014 ft | 348 kts | 257° |
| 2026-05-07 13:26 | 43.42623 | -0.30090 | 17694 ft | 352 kts | 257° |
| 2026-05-07 13:27 | 43.42142 | -0.33409 | 18353 ft | 356 kts | 257° |
| 2026-05-07 13:27 | 43.41656 | -0.36764 | 18948 ft | 359 kts | 257° |
| 2026-05-07 13:27 | 43.41170 | -0.40106 | 19547 ft | 362 kts | 257° |
| 2026-05-07 13:27 | 43.40676 | -0.43519 | 20163 ft | 365 kts | 257° |
| 2026-05-07 13:28 | 43.40178 | -0.46955 | 20777 ft | 368 kts | 257° |
| 2026-05-07 13:28 | 43.39675 | -0.50417 | 21391 ft | 371 kts | 257° |
| 2026-05-07 13:28 | 43.39165 | -0.53907 | 21996 ft | 374 kts | 256° |
| 2026-05-07 13:28 | 43.38647 | -0.57425 | 22602 ft | 377 kts | 256° |
| 2026-05-07 13:29 | 43.38123 | -0.60971 | 23195 ft | 380 kts | 256° |
| 2026-05-07 13:29 | 43.37597 | -0.64538 | 23726 ft | 382 kts | 256° |
| 2026-05-07 13:29 | 43.37073 | -0.68128 | 24195 ft | 385 kts | 257° |
| 2026-05-07 13:29 | 43.36793 | -0.71814 | 24650 ft | 391 kts | 267° |
| 2026-05-07 13:30 | 43.37012 | -0.75559 | 25101 ft | 397 kts | 276° |
| 2026-05-07 13:30 | 43.37460 | -0.79314 | 25565 ft | 399 kts | 276° |
| 2026-05-07 13:30 | 43.37901 | -0.83091 | 26017 ft | 402 kts | 276° |
| 2026-05-07 13:30 | 43.38339 | -0.86895 | 26461 ft | 404 kts | 275° |
| 2026-05-07 13:31 | 43.38779 | -0.90721 | 26899 ft | 406 kts | 276° |
| 2026-05-07 13:31 | 43.39244 | -0.94566 | 27323 ft | 409 kts | 276° |
| 2026-05-07 13:31 | 43.39739 | -0.98428 | 27741 ft | 412 kts | 276° |
| 2026-05-07 13:31 | 43.40253 | -1.02322 | 28166 ft | 415 kts | 277° |
| 2026-05-07 13:32 | 43.40774 | -1.06231 | 28586 ft | 417 kts | 276° |
| 2026-05-07 13:32 | 43.41295 | -1.10172 | 28987 ft | 420 kts | 276° |
| 2026-05-07 13:32 | 43.41811 | -1.14133 | 29385 ft | 422 kts | 276° |
| 2026-05-07 13:32 | 43.42333 | -1.18124 | 29762 ft | 426 kts | 276° |
| 2026-05-07 13:33 | 43.42863 | -1.22146 | 30121 ft | 428 kts | 276° |
| 2026-05-07 13:33 | 43.43399 | -1.26185 | 30437 ft | 431 kts | 276° |
| 2026-05-07 13:33 | 43.43940 | -1.30246 | 30750 ft | 433 kts | 276° |
| 2026-05-07 13:33 | 43.44485 | -1.34336 | 31042 ft | 435 kts | 276° |
| 2026-05-07 13:34 | 43.45026 | -1.38437 | 31347 ft | 437 kts | 276° |
| 2026-05-07 13:34 | 43.45711 | -1.46706 | 32086 ft | 431 kts | 263° |
| 2026-05-07 13:34 | 43.45342 | -1.50763 | 32507 ft | 425 kts | 254° |
| 2026-05-07 13:35 | 43.44480 | -1.54625 | 32948 ft | 420 kts | 244° |
| 2026-05-07 13:35 | 43.43171 | -1.58185 | 33376 ft | 416 kts | 235° |
| 2026-05-07 13:35 | 43.41580 | -1.61493 | 33800 ft | 414 kts | 233° |
| 2026-05-07 13:35 | 43.39985 | -1.64784 | 34186 ft | 413 kts | 234° |
| 2026-05-07 13:36 | 43.38394 | -1.68068 | 34493 ft | 413 kts | 234° |
| 2026-05-07 13:36 | 43.36800 | -1.71350 | 34798 ft | 413 kts | 234° |
| 2026-05-07 13:36 | 43.35200 | -1.74640 | 35089 ft | 414 kts | 234° |
| 2026-05-07 13:36 | 43.33603 | -1.77921 | 35382 ft | 414 kts | 234° |
| 2026-05-07 13:37 | 43.32003 | -1.81210 | 35659 ft | 414 kts | 234° |
| 2026-05-07 13:37 | 43.30388 | -1.84476 | 35920 ft | 414 kts | 233° |
| 2026-05-07 13:37 | 43.28697 | -1.87683 | 36200 ft | 414 kts | 232° |
| 2026-05-07 13:37 | 43.26960 | -1.90824 | 36459 ft | 414 kts | 231° |
| 2026-05-07 13:38 | 43.25213 | -1.93906 | 36681 ft | 415 kts | 231° |
| 2026-05-07 13:38 | 43.23436 | -1.97031 | 36869 ft | 416 kts | 231° |
| 2026-05-07 13:38 | 43.21668 | -2.00169 | 36919 ft | 415 kts | 231° |
| 2026-05-07 13:39 | 43.18184 | -2.06442 | 36922 ft | 413 kts | 232° |
| 2026-05-07 13:39 | 43.14715 | -2.12709 | 36923 ft | 413 kts | 232° |
| 2026-05-07 13:40 | 43.11241 | -2.18965 | 36923 ft | 413 kts | 231° |
| 2026-05-07 13:40 | 43.07763 | -2.25206 | 36922 ft | 413 kts | 231° |
| 2026-05-07 13:41 | 43.04279 | -2.31448 | 36928 ft | 413 kts | 232° |
| 2026-05-07 13:41 | 43.00790 | -2.37675 | 36928 ft | 413 kts | 232° |
| 2026-05-07 13:42 | 42.97299 | -2.43909 | 36925 ft | 413 kts | 232° |
| 2026-05-07 13:42 | 42.93806 | -2.50132 | 36923 ft | 413 kts | 231° |
| 2026-05-07 13:43 | 42.90898 | -2.55288 | 36925 ft | 413 kts | 231° |
| 2026-05-07 13:43 | 42.87433 | -2.61424 | 36931 ft | 412 kts | 231° |
| 2026-05-07 13:44 | 42.83935 | -2.67616 | 36939 ft | 412 kts | 232° |
| 2026-05-07 13:44 | 42.80434 | -2.73798 | 36932 ft | 413 kts | 232° |
| 2026-05-07 13:45 | 42.76918 | -2.79999 | 36930 ft | 414 kts | 232° |
| 2026-05-07 13:45 | 42.73397 | -2.86191 | 36930 ft | 414 kts | 231° |
| 2026-05-07 13:46 | 42.69903 | -2.92408 | 36928 ft | 414 kts | 232° |
| 2026-05-07 13:46 | 42.66449 | -2.98657 | 36926 ft | 414 kts | 232° |
| 2026-05-07 13:47 | 42.62987 | -3.04901 | 36920 ft | 413 kts | 232° |
| 2026-05-07 13:47 | 42.59514 | -3.11122 | 36923 ft | 414 kts | 232° |
| 2026-05-07 13:48 | 42.56028 | -3.17335 | 36913 ft | 414 kts | 232° |
| 2026-05-07 13:48 | 42.52539 | -3.23546 | 36910 ft | 414 kts | 232° |
| 2026-05-07 13:49 | 42.49050 | -3.29757 | 36911 ft | 414 kts | 232° |
| 2026-05-07 13:49 | 42.45549 | -3.35970 | 37130 ft | 417 kts | 232° |
| 2026-05-07 13:49 | 42.43786 | -3.39095 | 37362 ft | 417 kts | 232° |
| 2026-05-07 13:50 | 42.42027 | -3.42211 | 37599 ft | 417 kts | 232° |
| 2026-05-07 13:50 | 42.40263 | -3.45334 | 37818 ft | 418 kts | 232° |
| 2026-05-07 13:50 | 42.38492 | -3.48465 | 37917 ft | 420 kts | 232° |
| 2026-05-07 13:51 | 42.34965 | -3.54687 | 37908 ft | 420 kts | 232° |
| 2026-05-07 13:51 | 42.31408 | -3.60951 | 37924 ft | 420 kts | 232° |
| 2026-05-07 13:52 | 42.27820 | -3.67256 | 37920 ft | 420 kts | 232° |
| 2026-05-07 13:52 | 42.24258 | -3.73507 | 37915 ft | 420 kts | 232° |
| 2026-05-07 13:53 | 42.20711 | -3.79711 | 37915 ft | 420 kts | 232° |
| 2026-05-07 13:53 | 42.17128 | -3.85958 | 37910 ft | 421 kts | 233° |
| 2026-05-07 13:54 | 42.13539 | -3.92212 | 37907 ft | 424 kts | 233° |
| 2026-05-07 13:54 | 42.09855 | -3.98602 | 37913 ft | 434 kts | 232° |
| 2026-05-07 13:55 | 42.06136 | -4.05062 | 37909 ft | 444 kts | 233° |
| 2026-05-07 13:55 | 42.02458 | -4.11786 | 37898 ft | 447 kts | 240° |
| 2026-05-07 13:56 | 41.99613 | -4.19218 | 37907 ft | 447 kts | 243° |
| 2026-05-07 13:56 | 41.96782 | -4.26674 | 37905 ft | 448 kts | 243° |
| 2026-05-07 13:57 | 41.93946 | -4.34117 | 37911 ft | 448 kts | 243° |
| 2026-05-07 13:57 | 41.91096 | -4.41559 | 37921 ft | 448 kts | 243° |
| 2026-05-07 13:58 | 41.88237 | -4.48998 | 37916 ft | 449 kts | 243° |
| 2026-05-07 13:58 | 41.85381 | -4.56444 | 37924 ft | 449 kts | 243° |
| 2026-05-07 13:59 | 41.82519 | -4.63893 | 37922 ft | 450 kts | 243° |
| 2026-05-07 13:59 | 41.79640 | -4.71350 | 37932 ft | 451 kts | 243° |
| 2026-05-07 14:00 | 41.76751 | -4.78812 | 37933 ft | 451 kts | 243° |
| 2026-05-07 14:00 | 41.73855 | -4.86273 | 37938 ft | 452 kts | 243° |
| 2026-05-07 14:01 | 41.70952 | -4.93728 | 37941 ft | 452 kts | 243° |
| 2026-05-07 14:01 | 41.68045 | -5.01182 | 37940 ft | 452 kts | 243° |
| 2026-05-07 14:02 | 41.65132 | -5.08637 | 37925 ft | 452 kts | 244° |
| 2026-05-07 14:02 | 41.62218 | -5.16077 | 37929 ft | 452 kts | 243° |
| 2026-05-07 14:03 | 41.59296 | -5.23498 | 37926 ft | 451 kts | 243° |
| 2026-05-07 14:03 | 41.56370 | -5.30912 | 37919 ft | 451 kts | 243° |
| 2026-05-07 14:04 | 41.53449 | -5.38313 | 37920 ft | 450 kts | 244° |
| 2026-05-07 14:04 | 41.50520 | -5.45699 | 37917 ft | 450 kts | 244° |
| 2026-05-07 14:05 | 41.47613 | -5.53015 | 37913 ft | 449 kts | 244° |
| 2026-05-07 14:05 | 41.44684 | -5.60384 | 37912 ft | 449 kts | 244° |
| 2026-05-07 14:06 | 41.41751 | -5.67732 | 37896 ft | 449 kts | 244° |
| 2026-05-07 14:06 | 41.38817 | -5.75065 | 37912 ft | 448 kts | 244° |
| 2026-05-07 14:07 | 41.35892 | -5.82371 | 37910 ft | 447 kts | 244° |
| 2026-05-07 14:07 | 41.32964 | -5.89654 | 37912 ft | 446 kts | 244° |
| 2026-05-07 14:08 | 41.30035 | -5.96920 | 37908 ft | 445 kts | 244° |
| 2026-05-07 14:08 | 41.27105 | -6.04170 | 37904 ft | 445 kts | 244° |
| 2026-05-07 14:09 | 41.24172 | -6.11408 | 37898 ft | 444 kts | 245° |
| 2026-05-07 14:09 | 41.21242 | -6.18603 | 37908 ft | 442 kts | 245° |
| 2026-05-07 14:10 | 41.18323 | -6.25774 | 37904 ft | 441 kts | 245° |
| 2026-05-07 14:10 | 41.14905 | -6.32545 | 37899 ft | 443 kts | 237° |
| 2026-05-07 14:11 | 41.11219 | -6.39085 | 37899 ft | 442 kts | 237° |
| 2026-05-07 14:11 | 41.07538 | -6.45605 | 37897 ft | 442 kts | 237° |
| 2026-05-07 14:12 | 41.03865 | -6.52116 | 37902 ft | 440 kts | 237° |
| 2026-05-07 14:12 | 41.00204 | -6.58598 | 37895 ft | 438 kts | 237° |
| 2026-05-07 14:13 | 40.96543 | -6.65042 | 37891 ft | 437 kts | 237° |
| 2026-05-07 14:13 | 40.92895 | -6.71462 | 37863 ft | 436 kts | 237° |
| 2026-05-07 14:14 | 40.89253 | -6.77857 | 37883 ft | 434 kts | 237° |
| 2026-05-07 14:14 | 40.85644 | -6.84172 | 37883 ft | 433 kts | 237° |
| 2026-05-07 14:15 | 40.81999 | -6.90546 | 37893 ft | 431 kts | 237° |
| 2026-05-07 14:15 | 40.78386 | -6.96833 | 37893 ft | 429 kts | 237° |
| 2026-05-07 14:16 | 40.74785 | -7.03097 | 37887 ft | 428 kts | 237° |
| 2026-05-07 14:16 | 40.71198 | -7.09341 | 37885 ft | 427 kts | 237° |
| 2026-05-07 14:17 | 40.67612 | -7.15573 | 37873 ft | 426 kts | 237° |
| 2026-05-07 14:17 | 40.64026 | -7.21770 | 37881 ft | 425 kts | 237° |
| 2026-05-07 14:18 | 40.60464 | -7.27916 | 37875 ft | 424 kts | 237° |
| 2026-05-07 14:18 | 40.56882 | -7.34086 | 37884 ft | 425 kts | 237° |
| 2026-05-07 14:19 | 40.53300 | -7.40254 | 37876 ft | 423 kts | 237° |
| 2026-05-07 14:19 | 40.49724 | -7.46395 | 37886 ft | 424 kts | 237° |
| 2026-05-07 14:20 | 40.46138 | -7.52537 | 37875 ft | 423 kts | 237° |
| 2026-05-07 14:20 | 40.42554 | -7.58661 | 37878 ft | 423 kts | 237° |
| 2026-05-07 14:21 | 40.38966 | -7.64783 | 37859 ft | 423 kts | 237° |
| 2026-05-07 14:21 | 40.35454 | -7.70750 | 37862 ft | 404 kts | 237° |
| 2026-05-07 14:22 | 40.32053 | -7.76532 | 37862 ft | 399 kts | 237° |
| 2026-05-07 14:22 | 40.30347 | -7.79437 | 37664 ft | 408 kts | 237° |
| 2026-05-07 14:22 | 40.28597 | -7.82416 | 37278 ft | 415 kts | 237° |
| 2026-05-07 14:22 | 40.26840 | -7.85401 | 36642 ft | 414 kts | 237° |
| 2026-05-07 14:23 | 40.25075 | -7.88388 | 35940 ft | 414 kts | 237° |
| 2026-05-07 14:23 | 40.23329 | -7.91338 | 35497 ft | 408 kts | 238° |
| 2026-05-07 14:23 | 40.21590 | -7.94277 | 34885 ft | 406 kts | 238° |
| 2026-05-07 14:23 | 40.19868 | -7.97176 | 34386 ft | 402 kts | 238° |
| 2026-05-07 14:24 | 40.18162 | -8.00044 | 33914 ft | 397 kts | 238° |
| 2026-05-07 14:24 | 40.16477 | -8.02875 | 33391 ft | 392 kts | 238° |
| 2026-05-07 14:24 | 40.14812 | -8.05665 | 32937 ft | 386 kts | 238° |
| 2026-05-07 14:24 | 40.13173 | -8.08414 | 32470 ft | 381 kts | 238° |
| 2026-05-07 14:25 | 40.11558 | -8.11132 | 32002 ft | 376 kts | 238° |
| 2026-05-07 14:25 | 40.09961 | -8.13817 | 31549 ft | 372 kts | 238° |
| 2026-05-07 14:25 | 40.08379 | -8.16475 | 31107 ft | 368 kts | 238° |
| 2026-05-07 14:25 | 40.06814 | -8.19099 | 30666 ft | 364 kts | 238° |
| 2026-05-07 14:26 | 40.05263 | -8.21695 | 30243 ft | 361 kts | 238° |
| 2026-05-07 14:26 | 40.03726 | -8.24271 | 29791 ft | 359 kts | 238° |
| 2026-05-07 14:26 | 40.02122 | -8.26750 | 29352 ft | 360 kts | 230° |
| 2026-05-07 14:26 | 40.00145 | -8.28789 | 28937 ft | 366 kts | 218° |
| 2026-05-07 14:27 | 39.97861 | -8.30204 | 28599 ft | 377 kts | 205° |
| 2026-05-07 14:27 | 39.95235 | -8.30981 | 28262 ft | 396 kts | 193° |
| 2026-05-07 14:27 | 39.92492 | -8.31403 | 27950 ft | 397 kts | 193° |
| 2026-05-07 14:27 | 39.89752 | -8.31816 | 27616 ft | 396 kts | 192° |
| 2026-05-07 14:28 | 39.87016 | -8.32227 | 27287 ft | 395 kts | 192° |
| 2026-05-07 14:28 | 39.84293 | -8.32636 | 26955 ft | 393 kts | 192° |
| 2026-05-07 14:28 | 39.81581 | -8.33045 | 26624 ft | 392 kts | 192° |
| 2026-05-07 14:28 | 39.78880 | -8.33456 | 26295 ft | 390 kts | 192° |
| 2026-05-07 14:29 | 39.76187 | -8.33869 | 25961 ft | 389 kts | 192° |
| 2026-05-07 14:29 | 39.73504 | -8.34282 | 25640 ft | 387 kts | 193° |
| 2026-05-07 14:29 | 39.70928 | -8.35070 | 25349 ft | 374 kts | 205° |
| 2026-05-07 14:29 | 39.69384 | -8.35966 | 25218 ft | 363 kts | 213° |
| 2026-05-07 14:30 | 39.67338 | -8.37784 | 24842 ft | 352 kts | 226° |
| 2026-05-07 14:30 | 39.65692 | -8.40064 | 24539 ft | 343 kts | 236° |
| 2026-05-07 14:30 | 39.64255 | -8.42527 | 24255 ft | 342 kts | 236° |
| 2026-05-07 14:30 | 39.62813 | -8.44976 | 23971 ft | 341 kts | 236° |
| 2026-05-07 14:31 | 39.61367 | -8.47413 | 23682 ft | 340 kts | 236° |
| 2026-05-07 14:31 | 39.59924 | -8.49842 | 23399 ft | 340 kts | 236° |
| 2026-05-07 14:31 | 39.58364 | -8.52145 | 23072 ft | 342 kts | 226° |
| 2026-05-07 14:31 | 39.56445 | -8.53999 | 22799 ft | 346 kts | 215° |
| 2026-05-07 14:32 | 39.54390 | -8.55609 | 22514 ft | 345 kts | 215° |
| 2026-05-07 14:32 | 39.52344 | -8.57213 | 22223 ft | 343 kts | 215° |
| 2026-05-07 14:32 | 39.50305 | -8.58814 | 21940 ft | 342 kts | 214° |
| 2026-05-07 14:32 | 39.48273 | -8.60408 | 21645 ft | 340 kts | 214° |
| 2026-05-07 14:33 | 39.46255 | -8.61985 | 21378 ft | 338 kts | 214° |
| 2026-05-07 14:33 | 39.44248 | -8.63554 | 21103 ft | 336 kts | 214° |
| 2026-05-07 14:33 | 39.42250 | -8.65118 | 20837 ft | 335 kts | 214° |
| 2026-05-07 14:33 | 39.40259 | -8.66678 | 20560 ft | 334 kts | 214° |
| 2026-05-07 14:34 | 39.38277 | -8.68233 | 20288 ft | 333 kts | 214° |
| 2026-05-07 14:34 | 39.36303 | -8.69780 | 20011 ft | 332 kts | 214° |
| 2026-05-07 14:34 | 39.34331 | -8.71321 | 19736 ft | 331 kts | 214° |
| 2026-05-07 14:34 | 39.32350 | -8.72870 | 19466 ft | 344 kts | 214° |
| 2026-05-07 14:35 | 39.30359 | -8.74813 | 19165 ft | 372 kts | 223° |
| 2026-05-07 14:35 | 39.28435 | -8.77034 | 18841 ft | 363 kts | 224° |
| 2026-05-07 14:35 | 39.26608 | -8.79127 | 18723 ft | 340 kts | 224° |
| 2026-05-07 14:35 | 39.24876 | -8.81099 | 18360 ft | 327 kts | 223° |
| 2026-05-07 14:36 | 39.23187 | -8.83023 | 17879 ft | 319 kts | 223° |
| 2026-05-07 14:36 | 39.21533 | -8.84910 | 17736 ft | 318 kts | 223° |
| 2026-05-07 14:36 | 39.19878 | -8.86796 | 17484 ft | 317 kts | 223° |
| 2026-05-07 14:36 | 39.18229 | -8.88681 | 17227 ft | 316 kts | 223° |
| 2026-05-07 14:37 | 39.16591 | -8.90559 | 16968 ft | 314 kts | 223° |
| 2026-05-07 14:37 | 39.13345 | -8.94264 | 16459 ft | 311 kts | 223° |
| 2026-05-07 14:37 | 39.11727 | -8.96106 | 16203 ft | 310 kts | 222° |
| 2026-05-07 14:38 | 39.10113 | -8.97942 | 15944 ft | 309 kts | 222° |
| 2026-05-07 14:38 | 39.08511 | -8.99761 | 15694 ft | 305 kts | 223° |
| 2026-05-07 14:38 | 39.06922 | -9.01567 | 15446 ft | 305 kts | 222° |
| 2026-05-07 14:38 | 39.05349 | -9.03349 | 15195 ft | 306 kts | 222° |
| 2026-05-07 14:39 | 39.03756 | -9.05154 | 14954 ft | 303 kts | 221° |
| 2026-05-07 14:39 | 39.02196 | -9.06925 | 14826 ft | 295 kts | 221° |
| 2026-05-07 14:39 | 39.00672 | -9.08628 | 14694 ft | 287 kts | 218° |
| 2026-05-07 14:39 | 38.98978 | -9.09913 | 14525 ft | 281 kts | 204° |
| 2026-05-07 14:40 | 38.97181 | -9.10872 | 14307 ft | 279 kts | 203° |
| 2026-05-07 14:40 | 38.95397 | -9.11824 | 14090 ft | 276 kts | 203° |
| 2026-05-07 14:40 | 38.93629 | -9.12770 | 13862 ft | 274 kts | 202° |
| 2026-05-07 14:40 | 38.91879 | -9.13706 | 13624 ft | 273 kts | 202° |
| 2026-05-07 14:41 | 38.90126 | -9.14643 | 13395 ft | 272 kts | 202° |
| 2026-05-07 14:41 | 38.88379 | -9.15579 | 13168 ft | 272 kts | 202° |
| 2026-05-07 14:41 | 38.86635 | -9.16515 | 12955 ft | 270 kts | 202° |
| 2026-05-07 14:41 | 38.84901 | -9.17442 | 12735 ft | 269 kts | 202° |
| 2026-05-07 14:42 | 38.83187 | -9.18356 | 12509 ft | 265 kts | 202° |
| 2026-05-07 14:42 | 38.81479 | -9.19265 | 12306 ft | 266 kts | 202° |
| 2026-05-07 14:42 | 38.79778 | -9.20170 | 12079 ft | 265 kts | 202° |
| 2026-05-07 14:42 | 38.78070 | -9.21081 | 11874 ft | 265 kts | 202° |
| 2026-05-07 14:43 | 38.76380 | -9.21981 | 11662 ft | 262 kts | 202° |
| 2026-05-07 14:43 | 38.74696 | -9.22877 | 11440 ft | 261 kts | 202° |
| 2026-05-07 14:43 | 38.73054 | -9.23860 | 11265 ft | 260 kts | 212° |
| 2026-05-07 14:43 | 38.71667 | -9.25347 | 11053 ft | 261 kts | 228° |
| 2026-05-07 14:44 | 38.70560 | -9.27197 | 10843 ft | 263 kts | 232° |
| 2026-05-07 14:44 | 38.69465 | -9.29061 | 10632 ft | 260 kts | 232° |
| 2026-05-07 14:44 | 38.68374 | -9.30905 | 10421 ft | 260 kts | 231° |
| 2026-05-07 14:44 | 38.67468 | -9.32896 | 10207 ft | 259 kts | 244° |
| 2026-05-07 14:45 | 38.66725 | -9.34999 | 9984 ft | 260 kts | 243° |
| 2026-05-07 14:45 | 38.65975 | -9.37096 | 9757 ft | 259 kts | 244° |
| 2026-05-07 14:45 | 38.65230 | -9.39173 | 9573 ft | 252 kts | 244° |
| 2026-05-07 14:45 | 38.64506 | -9.41189 | 9093 ft | 248 kts | 244° |
| 2026-05-07 14:46 | 38.63789 | -9.43181 | 8567 ft | 246 kts | 243° |
| 2026-05-07 14:46 | 38.63070 | -9.45170 | 7937 ft | 248 kts | 242° |
| 2026-05-07 14:46 | 38.62089 | -9.46921 | 7474 ft | 242 kts | 221° |
| 2026-05-07 14:46 | 38.60635 | -9.47966 | 6894 ft | 242 kts | 195° |
| 2026-05-07 14:47 | 38.58965 | -9.48081 | 6301 ft | 244 kts | 169° |
| 2026-05-07 14:47 | 38.57421 | -9.47217 | 5824 ft | 242 kts | 143° |
| 2026-05-07 14:47 | 38.56361 | -9.45637 | 5576 ft | 230 kts | 117° |
| 2026-05-07 14:47 | 38.55930 | -9.43772 | 5510 ft | 211 kts | 95° |
| 2026-05-07 14:48 | 38.56009 | -9.41962 | 5472 ft | 199 kts | 86° |
| 2026-05-07 14:48 | 38.56138 | -9.40217 | 5425 ft | 196 kts | 85° |
| 2026-05-07 14:48 | 38.56260 | -9.38482 | 5376 ft | 196 kts | 86° |
| 2026-05-07 14:48 | 38.56382 | -9.36752 | 5332 ft | 196 kts | 87° |
| 2026-05-07 14:49 | 38.56504 | -9.35019 | 5286 ft | 196 kts | 86° |
| 2026-05-07 14:49 | 38.56627 | -9.33288 | 5244 ft | 196 kts | 86° |
| 2026-05-07 14:49 | 38.56774 | -9.31560 | 5195 ft | 196 kts | 79° |
| 2026-05-07 14:49 | 38.57232 | -9.29910 | 5028 ft | 199 kts | 68° |
| 2026-05-07 14:50 | 38.57766 | -9.28268 | 4749 ft | 201 kts | 69° |
| 2026-05-07 14:50 | 38.58298 | -9.26616 | 4467 ft | 202 kts | 68° |
| 2026-05-07 14:50 | 38.58843 | -9.24961 | 4191 ft | 202 kts | 63° |
| 2026-05-07 14:50 | 38.59715 | -9.23588 | 3938 ft | 199 kts | 36° |
| 2026-05-07 14:51 | 38.60911 | -9.22775 | 3699 ft | 196 kts | 19° |
| 2026-05-07 14:51 | 38.62152 | -9.22117 | 3451 ft | 190 kts | 19° |
| 2026-05-07 14:51 | 38.63349 | -9.21479 | 3189 ft | 183 kts | 19° |
| 2026-05-07 14:51 | 38.64495 | -9.20869 | 2948 ft | 173 kts | 18° |
| 2026-05-07 14:52 | 38.65575 | -9.20293 | 2720 ft | 164 kts | 17° |
| 2026-05-07 14:52 | 38.66603 | -9.19746 | 2504 ft | 156 kts | 17° |
| 2026-05-07 14:52 | 38.67586 | -9.19222 | 2279 ft | 151 kts | 18° |
| 2026-05-07 14:52 | 38.68536 | -9.18716 | 2076 ft | 145 kts | 17° |
| 2026-05-07 14:53 | 38.69461 | -9.18223 | 1887 ft | 142 kts | 15° |
| 2026-05-07 14:53 | 38.70374 | -9.17737 | 1695 ft | 142 kts | 17° |
| 2026-05-07 14:53 | 38.71281 | -9.17253 | 1508 ft | 141 kts | 16° |
| 2026-05-07 14:53 | 38.72194 | -9.16765 | 1303 ft | 143 kts | 14° |
| 2026-05-07 14:54 | 38.73113 | -9.16279 | 1113 ft | 141 kts | 15° |
| 2026-05-07 14:54 | 38.74020 | -9.15793 | 938 ft | 140 kts | 15° |
| 2026-05-07 14:54 | 38.74924 | -9.15310 | 700 ft | 143 kts | 18° |
| 2026-05-07 14:54 | 38.75832 | -9.14826 | 542 ft | 143 kts | 19° |
| 2026-05-07 14:55 | 38.76748 | -9.14329 | 365 ft | 141 kts | 18° |
| 2026-05-07 14:55 | 38.77550 | -9.13903 | 365 ft | 105 kts | 22° |
| 2026-05-07 14:55 | 38.78066 | -9.13631 | 365 ft | 56 kts | 24° |
| 2026-05-07 14:55 | 38.78315 | -9.13430 | 364 ft | 36 kts | 47° |
| 2026-05-07 14:56 | 38.78368 | -9.13290 | 364 ft | 10 kts | 116° |
| 2026-05-07 14:56 | 38.78298 | -9.13276 | 363 ft | 12 kts | 204° |
| 2026-05-07 14:56 | 38.78216 | -9.13319 | 363 ft | 13 kts | 201° |
| 2026-05-07 14:56 | 38.78137 | -9.13360 | 360 ft | 13 kts | 203° |
| 2026-05-07 14:57 | 38.78053 | -9.13404 | 360 ft | 14 kts | 201° |
| 2026-05-07 14:57 | 38.77961 | -9.13400 | 353 ft | 15 kts | 166° |
| 2026-05-07 14:57 | 38.77877 | -9.13377 | 349 ft | 12 kts | 168° |
| 2026-05-07 14:57 | 38.77782 | -9.13351 | 348 ft | 15 kts | 168° |
| 2026-05-07 14:58 | 38.77659 | -9.13321 | 336 ft | 19 kts | 176° |
| 2026-05-07 14:58 | 38.77527 | -9.13305 | 338 ft | 19 kts | 168° |
| 2026-05-07 14:58 | 38.77392 | -9.13269 | 338 ft | 20 kts | 170° |
| 2026-05-07 14:58 | 38.77264 | -9.13243 | 338 ft | 9 kts | 168° |
| 2026-05-07 14:59 | 38.77247 | -9.13196 | 337 ft | 7 kts | 79° |
| 2026-05-07 14:59 | 38.77253 | -9.13161 | 336 ft | 3 kts | 77° |
| 2026-05-07 14:59 | 38.77254 | -9.13153 | 337 ft | 0 kts | 77° |